createdAt,value
2024-05-09T03:21:18.824Z,1026.80
2024-05-09T03:22:21.788Z,1026.78
2024-05-09T03:23:18.546Z,1026.80
2024-05-09T03:24:18.629Z,1026.74
2024-05-09T03:25:18.487Z,1026.69
2024-05-09T03:26:18.602Z,1026.75
2024-05-09T03:27:18.488Z,1026.70
2024-05-09T03:28:18.498Z,1026.62
2024-05-09T03:29:18.505Z,1026.61
2024-05-09T03:30:29.318Z,1026.63
2024-05-09T03:31:19.470Z,1026.64
2024-05-09T03:32:18.548Z,1026.68
2024-05-09T03:33:20.164Z,1026.66
2024-05-09T03:34:18.492Z,1026.64
2024-05-09T03:35:18.342Z,1026.61
2024-05-09T03:36:18.419Z,1026.60
2024-05-09T03:37:18.321Z,1026.60
2024-05-09T03:38:18.532Z,1026.73
2024-05-09T03:39:18.300Z,1026.81
2024-05-09T03:40:23.636Z,1026.77
2024-05-09T03:41:19.331Z,1026.82
2024-05-09T03:42:18.232Z,1026.83
2024-05-09T03:43:18.206Z,1026.88
2024-05-09T03:44:18.278Z,1026.90
2024-05-09T03:45:18.305Z,1026.94
2024-05-09T03:46:18.213Z,1026.91
2024-05-09T03:47:18.239Z,1026.89
2024-05-09T03:48:18.356Z,1026.84
2024-05-09T03:49:18.414Z,1026.83
2024-05-09T03:50:25.809Z,1026.74
2024-05-09T03:51:19.253Z,1026.72
2024-05-09T03:52:18.078Z,1026.69
2024-05-09T03:53:18.341Z,1026.71
2024-05-09T03:54:18.070Z,1026.71
2024-05-09T03:55:18.067Z,1026.70
2024-05-09T03:56:18.156Z,1026.66
2024-05-09T03:57:18.123Z,1026.66
2024-05-09T03:58:18.040Z,1026.64
2024-05-09T03:59:17.991Z,1026.61
2024-05-09T04:00:26.197Z,1026.65
2024-05-09T04:01:19.015Z,1026.69
2024-05-09T04:02:18.155Z,1026.73
2024-05-09T04:03:18.641Z,1026.80
2024-05-09T04:04:18.045Z,1026.80
2024-05-09T04:05:17.946Z,1026.78
2024-05-09T04:06:17.890Z,1026.78
2024-05-09T04:07:17.949Z,1026.81
2024-05-09T04:08:17.952Z,1026.80
2024-05-09T04:09:18.008Z,1026.80
2024-05-09T04:10:27.648Z,1026.85
2024-05-09T04:11:18.969Z,1026.83
2024-05-09T04:12:18.007Z,1026.84
2024-05-09T04:13:17.835Z,1026.76
2024-05-09T04:14:18.058Z,1026.78
2024-05-09T04:15:17.876Z,1026.74
2024-05-09T04:16:17.792Z,1026.78
2024-05-09T04:17:17.887Z,1026.81
2024-05-09T04:18:17.888Z,1026.85
2024-05-09T04:19:18.020Z,1026.83
2024-05-09T04:20:28.767Z,1026.91
2024-05-09T04:21:18.740Z,1026.91
2024-05-09T04:22:17.731Z,1026.98
2024-05-09T04:23:17.889Z,1027.03
2024-05-09T04:24:17.824Z,1027.13
2024-05-09T04:25:17.649Z,1027.24
2024-05-09T04:26:17.756Z,1027.23
2024-05-09T04:27:17.738Z,1027.25
2024-05-09T04:28:17.683Z,1027.26
2024-05-09T04:29:17.666Z,1027.24
2024-05-09T04:30:25.755Z,1027.24
2024-05-09T04:31:18.723Z,1027.22
2024-05-09T04:32:17.827Z,1027.20
2024-05-09T04:33:28.853Z,1027.20
2024-05-09T04:34:32.524Z,1027.24
2024-05-09T04:36:41.619Z,1027.44
2024-05-09T04:37:38.814Z,1027.44
2024-05-09T04:38:55.720Z,1027.53
2024-05-09T04:39:38.705Z,1027.48
2024-05-09T04:43:39.717Z,1027.64
2024-05-09T04:44:39.384Z,1027.67
2024-05-09T04:45:39.462Z,1027.71
2024-05-09T04:46:39.260Z,1027.67
2024-05-09T04:47:39.441Z,1027.63
2024-05-09T04:48:39.459Z,1027.64
2024-05-09T04:49:39.429Z,1027.66
2024-05-09T04:50:39.954Z,1027.60
2024-05-09T04:51:39.249Z,1027.61
2024-05-09T04:52:39.186Z,1027.53
2024-05-09T04:53:39.394Z,1027.51
2024-05-09T04:54:39.152Z,1027.57
2024-05-09T04:55:39.931Z,1027.56
2024-05-09T04:56:39.173Z,1027.56
2024-05-09T04:57:39.135Z,1027.58
2024-05-09T04:58:39.271Z,1027.56
2024-05-09T04:59:39.183Z,1027.57
2024-05-09T05:00:40.465Z,1027.58
2024-05-09T05:01:39.132Z,1027.61
2024-05-09T05:02:39.081Z,1027.63
2024-05-09T05:03:39.466Z,1027.68
2024-05-09T05:04:39.035Z,1027.67
2024-05-09T05:05:39.135Z,1027.74
2024-05-09T05:06:39.034Z,1027.73
2024-05-09T05:07:39.173Z,1027.72
2024-05-09T05:08:39.148Z,1027.71
2024-05-09T05:09:39.010Z,1027.72
2024-05-09T05:10:38.956Z,1027.85
2024-05-09T05:11:39.030Z,1027.87
2024-05-09T05:12:38.891Z,1027.90
2024-05-09T05:13:41.342Z,1027.94
2024-05-09T05:14:38.956Z,1027.95
2024-05-09T05:15:38.889Z,1027.93
2024-05-09T05:16:38.996Z,1027.95
2024-05-09T05:17:39.100Z,1027.97
2024-05-09T05:18:38.985Z,1027.89
2024-05-09T05:19:38.960Z,1027.82
2024-05-09T05:20:38.947Z,1027.83
2024-05-09T05:21:38.794Z,1027.92
2024-05-09T05:22:38.833Z,1027.94
2024-05-09T05:23:38.884Z,1027.96
2024-05-09T05:24:38.795Z,1027.88
2024-05-09T05:25:38.775Z,1027.93
2024-05-09T05:26:38.733Z,1027.98
2024-05-09T05:27:38.867Z,1027.92
2024-05-09T05:28:38.677Z,1027.85
2024-05-09T05:29:38.837Z,1027.83
2024-05-09T05:30:38.773Z,1027.81
2024-05-09T05:31:38.812Z,1027.83
2024-05-09T05:32:38.958Z,1027.85
2024-05-09T05:33:39.128Z,1027.85
2024-05-09T05:34:38.686Z,1027.84
2024-05-09T05:35:38.686Z,1027.88
2024-05-09T05:36:38.587Z,1027.89
2024-05-09T05:37:38.578Z,1027.88
2024-05-09T05:38:38.577Z,1027.98
2024-05-09T05:39:38.565Z,1028.03
2024-05-09T05:40:39.764Z,1028.05
2024-05-09T05:41:38.550Z,1028.10
2024-05-09T05:42:38.569Z,1028.08
2024-05-09T05:43:38.601Z,1028.05
2024-05-09T05:44:38.620Z,1027.99
2024-05-09T05:45:39.270Z,1027.93
2024-05-09T05:46:38.552Z,1027.85
2024-05-09T05:47:38.846Z,1027.84
2024-05-09T05:48:38.605Z,1027.77
2024-05-09T05:49:38.558Z,1027.73
2024-05-09T05:50:38.948Z,1027.67
2024-05-09T05:51:38.659Z,1027.48
2024-05-09T05:52:38.445Z,1027.46
2024-05-09T05:53:38.630Z,1027.38
2024-05-09T05:54:38.389Z,1027.45
2024-05-09T05:55:38.330Z,1027.39
2024-05-09T05:56:38.426Z,1027.24
2024-05-09T05:57:38.380Z,1027.17
2024-05-09T05:58:38.494Z,1027.11
2024-05-09T05:59:38.629Z,1026.98
2024-05-09T06:00:40.176Z,1026.98
2024-05-09T06:01:38.381Z,1026.91
2024-05-09T06:02:38.821Z,1026.79
2024-05-09T06:03:38.696Z,1026.66
2024-05-09T06:04:38.373Z,1026.54
2024-05-09T06:05:38.242Z,1026.35
2024-05-09T06:06:38.184Z,1026.27
2024-05-09T06:07:38.157Z,1026.29
2024-05-09T06:08:38.164Z,1026.22
2024-05-09T06:09:38.073Z,1026.18
2024-05-09T06:10:40.346Z,1026.03
2024-05-09T06:11:38.314Z,1026.11
2024-05-09T06:12:38.163Z,1026.03
2024-05-09T06:13:38.039Z,1026.01
2024-05-09T06:14:38.058Z,1025.96
2024-05-09T06:15:38.043Z,1025.85
2024-05-09T06:16:38.024Z,1025.83
2024-05-09T06:17:38.085Z,1025.85
2024-05-09T06:18:38.099Z,1025.83
2024-05-09T06:19:38.106Z,1025.77
2024-05-09T06:20:38.581Z,1025.72
2024-05-09T06:21:37.891Z,1025.62
2024-05-09T06:22:37.912Z,1025.64
2024-05-09T06:23:38.124Z,1025.52
2024-05-09T06:24:37.914Z,1025.52
2024-05-09T06:25:38.131Z,1025.48
2024-05-09T06:26:37.893Z,1025.48
2024-05-09T06:27:37.804Z,1025.43
2024-05-09T06:28:37.834Z,1025.49
2024-05-09T06:29:37.868Z,1025.56
2024-05-09T06:30:40.702Z,1025.50
2024-05-09T06:31:37.797Z,1025.51
2024-05-09T06:32:37.953Z,1025.53
2024-05-09T06:33:37.864Z,1025.43
2024-05-09T06:34:37.946Z,1025.42
2024-05-09T06:35:38.159Z,1025.40
2024-05-09T06:36:37.765Z,1025.36
2024-05-09T06:37:37.682Z,1025.33
2024-05-09T06:38:37.819Z,1025.29
2024-05-09T06:39:37.661Z,1025.29
2024-05-09T06:40:39.807Z,1025.29
2024-05-09T06:41:37.638Z,1025.33
2024-05-09T06:42:37.703Z,1025.26
2024-05-09T06:43:37.580Z,1025.25
2024-05-09T06:44:37.606Z,1025.28
2024-05-09T06:45:37.544Z,1025.25
2024-05-09T06:46:37.540Z,1025.28
2024-05-09T06:47:37.827Z,1025.24
2024-05-09T06:48:37.870Z,1025.26
2024-05-09T06:49:37.585Z,1025.20
2024-05-09T06:50:39.209Z,1025.27
2024-05-09T06:51:37.505Z,1025.26
2024-05-09T06:52:37.481Z,1025.25
2024-05-09T06:53:37.608Z,1025.24
2024-05-09T06:54:37.451Z,1025.21
2024-05-09T06:55:37.807Z,1025.24
2024-05-09T06:56:37.457Z,1025.21
2024-05-09T06:57:39.086Z,1025.24
2024-05-09T06:58:37.379Z,1025.25
2024-05-09T06:59:37.450Z,1025.21
2024-05-09T07:00:40.071Z,1025.19
2024-05-09T07:01:37.367Z,1025.20
2024-05-09T07:02:37.389Z,1025.21
2024-05-09T07:03:37.486Z,1025.19
2024-05-09T07:04:37.473Z,1025.16
2024-05-09T07:05:37.323Z,1025.20
2024-05-09T07:06:37.283Z,1025.25
2024-05-09T07:07:37.261Z,1025.16
2024-05-09T07:08:37.279Z,1025.17
2024-05-09T07:09:37.235Z,1025.18
2024-05-09T07:10:37.597Z,1025.15
2024-05-09T07:11:37.287Z,1025.16
2024-05-09T07:12:37.162Z,1025.19
2024-05-09T07:13:37.189Z,1025.19
2024-05-09T07:14:38.357Z,1025.17
2024-05-09T07:15:37.141Z,1025.19
2024-05-09T07:16:37.242Z,1025.21
2024-05-09T07:17:37.250Z,1025.23
2024-05-09T07:18:37.407Z,1025.20
2024-05-09T07:19:37.224Z,1025.16
2024-05-09T07:20:37.139Z,1025.21
2024-05-09T07:21:37.058Z,1025.22
2024-05-09T07:22:37.052Z,1025.25
2024-05-09T07:23:37.178Z,1025.26
2024-05-09T07:24:37.059Z,1025.25
2024-05-09T07:25:37.014Z,1025.24
2024-05-09T07:26:37.137Z,1025.24
2024-05-09T07:27:36.970Z,1025.20
2024-05-09T07:28:37.014Z,1025.18
2024-05-09T07:29:38.687Z,1025.23
2024-05-09T07:30:36.991Z,1025.23
2024-05-09T07:31:36.935Z,1025.22
2024-05-09T07:32:37.015Z,1025.23
2024-05-09T07:33:37.077Z,1025.26
2024-05-09T07:34:36.907Z,1025.22
2024-05-09T07:35:36.932Z,1025.21
2024-05-09T07:36:36.915Z,1025.17
2024-05-09T07:37:36.896Z,1025.20
2024-05-09T07:38:37.025Z,1025.20
2024-05-09T07:39:36.804Z,1025.20
2024-05-09T07:40:37.252Z,1025.20
2024-05-09T07:41:36.862Z,1025.24
2024-05-09T07:42:36.769Z,1025.15
2024-05-09T07:43:36.801Z,1025.22
2024-05-09T07:44:36.781Z,1025.23
2024-05-09T07:45:48.450Z,1025.25
2024-05-09T07:47:44.995Z,1025.23
2024-05-09T07:50:34.646Z,1025.20
2024-05-09T07:53:14.233Z,1025.16
2024-05-09T07:53:33.552Z,1025.18
2024-05-09T07:53:43.287Z,1025.19
2024-05-09T07:54:37.781Z,1025.18
2024-05-09T07:55:36.787Z,1025.11
2024-05-09T07:56:36.771Z,1025.15
2024-05-09T07:57:36.667Z,1025.18
2024-05-09T07:58:36.556Z,1025.17
2024-05-09T07:59:38.045Z,1025.15
2024-05-09T08:00:36.612Z,1025.07
2024-05-09T08:01:36.640Z,1025.07
2024-05-09T08:02:36.511Z,1025.08
2024-05-09T08:03:36.681Z,1025.01
2024-05-09T08:04:36.620Z,1025.05
2024-05-09T08:05:36.580Z,1025.02
2024-05-09T08:06:36.902Z,1025.07
2024-05-09T08:07:36.430Z,1025.02
2024-05-09T08:08:36.390Z,1025.02
2024-05-09T08:09:38.003Z,1025.02
2024-05-09T08:10:36.435Z,1025.07
2024-05-09T08:11:36.471Z,1025.05
2024-05-09T08:12:36.470Z,1024.99
2024-05-09T08:13:36.386Z,1025.05
2024-05-09T08:14:36.328Z,1024.98
2024-05-09T08:15:36.514Z,1025.01
2024-05-09T08:16:36.339Z,1024.97
2024-05-09T08:17:36.493Z,1024.99
2024-05-09T08:18:36.398Z,1024.96
2024-05-09T08:19:36.280Z,1025.00
2024-05-09T08:20:36.298Z,1024.95
2024-05-09T08:21:36.384Z,1024.96
2024-05-09T08:22:36.235Z,1024.97
2024-05-09T08:23:36.276Z,1024.97
2024-05-09T08:24:36.309Z,1024.96
2024-05-09T08:25:36.163Z,1024.99
2024-05-09T08:26:36.253Z,1024.94
2024-05-09T08:27:36.209Z,1025.05
2024-05-09T08:28:36.455Z,1024.99
2024-05-09T08:29:36.119Z,1024.99
2024-05-09T08:30:37.773Z,1024.96
2024-05-09T08:31:36.135Z,1024.91
2024-05-09T08:32:36.127Z,1024.90
2024-05-09T08:33:36.687Z,1024.89
2024-05-09T08:34:36.081Z,1024.91
2024-05-09T08:35:36.130Z,1024.92
2024-05-09T08:36:36.129Z,1024.91
2024-05-09T08:37:38.910Z,1024.92
2024-05-09T08:38:36.029Z,1024.90
2024-05-09T08:39:35.978Z,1024.92
2024-05-09T08:40:37.637Z,1024.88
2024-05-09T08:41:36.126Z,1024.90
2024-05-09T08:42:35.957Z,1024.93
2024-05-09T08:43:38.238Z,1024.93
2024-05-09T08:44:35.906Z,1024.94
2024-05-09T08:45:36.063Z,1024.90
2024-05-09T08:46:36.005Z,1024.93
2024-05-09T08:47:36.081Z,1024.89
2024-05-09T08:48:36.008Z,1024.88
2024-05-09T08:49:37.716Z,1024.84
2024-05-09T08:50:38.959Z,1024.85
2024-05-09T08:51:35.910Z,1024.89
2024-05-09T08:52:35.822Z,1024.91
2024-05-09T08:53:35.870Z,1024.86
2024-05-09T08:54:35.836Z,1024.90
2024-05-09T08:55:38.168Z,1024.90
2024-05-09T08:56:35.790Z,1024.88
2024-05-09T08:57:35.793Z,1024.89
2024-05-09T08:58:35.974Z,1024.93
2024-05-09T08:59:35.687Z,1024.92
2024-05-09T09:00:37.410Z,1024.94
2024-05-09T09:01:37.256Z,1024.90
2024-05-09T09:02:35.797Z,1024.88
2024-05-09T09:03:36.058Z,1024.89
2024-05-09T09:04:35.763Z,1024.93
2024-05-09T09:05:35.770Z,1024.90
2024-05-09T09:06:35.778Z,1024.87
2024-05-09T09:07:35.615Z,1024.91
2024-05-09T09:08:35.563Z,1024.89
2024-05-09T09:09:35.631Z,1024.88
2024-05-09T09:10:35.886Z,1024.88
2024-05-09T09:11:35.614Z,1024.84
2024-05-09T09:12:35.555Z,1024.79
2024-05-09T09:13:35.544Z,1024.84
2024-05-09T09:14:35.487Z,1024.87
2024-05-09T09:15:35.539Z,1024.86
2024-05-09T09:16:35.486Z,1024.83
2024-05-09T09:17:35.593Z,1024.73
2024-05-09T09:18:35.567Z,1024.75
2024-05-09T09:19:35.571Z,1024.72
2024-05-09T09:20:36.877Z,1024.76
2024-05-09T09:21:35.477Z,1024.78
2024-05-09T09:22:35.387Z,1024.78
2024-05-09T09:23:35.407Z,1024.80
2024-05-09T09:24:35.437Z,1024.74
2024-05-09T09:25:35.635Z,1024.76
2024-05-09T09:26:35.315Z,1024.79
2024-05-09T09:27:35.393Z,1024.80
2024-05-09T09:28:35.298Z,1024.77
2024-05-09T09:29:35.293Z,1024.75
2024-05-09T09:30:37.888Z,1024.71
2024-05-09T09:31:35.314Z,1024.75
2024-05-09T09:32:35.319Z,1024.78
2024-05-09T09:33:35.913Z,1024.81
2024-05-09T09:34:35.337Z,1024.83
2024-05-09T09:35:35.268Z,1024.79
2024-05-09T09:36:35.298Z,1024.85
2024-05-09T09:37:35.205Z,1024.79
2024-05-09T09:38:35.144Z,1024.73
2024-05-09T09:39:35.274Z,1024.78
2024-05-09T09:40:38.711Z,1024.78
2024-05-09T09:41:36.409Z,1024.78
2024-05-09T09:42:35.105Z,1024.82
2024-05-09T09:43:35.157Z,1024.77
2024-05-09T09:44:37.355Z,1024.79
2024-05-09T09:45:35.069Z,1024.76
2024-05-09T09:46:35.149Z,1024.73
2024-05-09T09:47:35.282Z,1024.81
2024-05-09T09:48:35.162Z,1024.75
2024-05-09T09:49:35.109Z,1024.75
2024-05-09T09:50:35.443Z,1024.71
2024-05-09T09:51:35.172Z,1024.65
2024-05-09T09:52:35.056Z,1024.72
2024-05-09T09:53:35.015Z,1024.67
2024-05-09T09:54:35.004Z,1024.65
2024-05-09T09:55:34.939Z,1024.69
2024-05-09T09:56:35.122Z,1024.60
2024-05-09T09:57:35.027Z,1024.64
2024-05-09T09:58:34.967Z,1024.62
2024-05-09T09:59:34.871Z,1024.62
2024-05-09T10:00:34.996Z,1024.59
2024-05-09T10:01:35.055Z,1024.58
2024-05-09T10:02:34.946Z,1024.59
2024-05-09T10:03:35.346Z,1024.59
2024-05-09T10:04:34.967Z,1024.58
2024-05-09T10:05:35.070Z,1024.57
2024-05-09T10:06:34.899Z,1024.58
2024-05-09T10:07:34.772Z,1024.63
2024-05-09T10:08:34.913Z,1024.58
2024-05-09T10:09:34.817Z,1024.58
2024-05-09T10:10:35.029Z,1024.53
2024-05-09T10:11:41.883Z,1024.56
2024-05-09T10:12:35.976Z,1024.55
2024-05-09T10:13:35.078Z,1024.50
2024-05-09T10:14:34.719Z,1024.56
2024-05-09T10:15:34.689Z,1024.56
2024-05-09T10:16:34.798Z,1024.49
2024-05-09T10:17:34.825Z,1024.52
2024-05-09T10:18:34.855Z,1024.51
2024-05-09T10:19:34.720Z,1024.51
2024-05-09T10:20:34.649Z,1024.41
2024-05-09T10:21:34.641Z,1024.39
2024-05-09T10:22:34.558Z,1024.40
2024-05-09T10:23:34.786Z,1024.42
2024-05-09T10:24:34.625Z,1024.43
2024-05-09T10:25:34.517Z,1024.45
2024-05-09T10:26:34.516Z,1024.43
2024-05-09T10:27:34.587Z,1024.42
2024-05-09T10:28:34.554Z,1024.43
2024-05-09T10:29:34.525Z,1024.43
2024-05-09T10:30:36.319Z,1024.39
2024-05-09T10:31:34.606Z,1024.42
2024-05-09T10:32:34.508Z,1024.34
2024-05-09T10:33:34.539Z,1024.35
2024-05-09T10:34:34.504Z,1024.40
2024-05-09T10:35:34.479Z,1024.36
2024-05-09T10:36:34.400Z,1024.36
2024-05-09T10:37:34.446Z,1024.36
2024-05-09T10:38:34.371Z,1024.35
2024-05-09T10:39:34.503Z,1024.33
2024-05-09T10:40:34.350Z,1024.30
2024-05-09T10:41:34.348Z,1024.23
2024-05-09T10:42:34.356Z,1024.22
2024-05-09T10:43:34.330Z,1024.19
2024-05-09T10:44:34.324Z,1024.21
2024-05-09T10:45:34.326Z,1024.18
2024-05-09T10:46:34.283Z,1024.21
2024-05-09T10:47:34.346Z,1024.25
2024-05-09T10:48:34.461Z,1024.19
2024-05-09T10:49:34.334Z,1024.20
2024-05-09T10:50:34.763Z,1024.18
2024-05-09T10:51:34.240Z,1024.17
2024-05-09T10:52:34.204Z,1024.17
2024-05-09T10:53:34.187Z,1024.14
2024-05-09T10:54:34.440Z,1024.19
2024-05-09T10:55:34.202Z,1024.21
2024-05-09T10:56:34.167Z,1024.21
2024-05-09T10:57:34.178Z,1024.22
2024-05-09T10:58:34.168Z,1024.16
2024-05-09T10:59:34.090Z,1024.10
2024-05-09T11:00:36.318Z,1024.13
2024-05-09T11:01:34.253Z,1024.09
2024-05-09T11:02:34.245Z,1024.10
2024-05-09T11:03:34.360Z,1024.11
2024-05-09T11:04:34.191Z,1024.11
2024-05-09T11:05:34.279Z,1024.05
2024-05-09T11:06:34.041Z,1024.07
2024-05-09T11:07:34.104Z,1024.03
2024-05-09T11:08:34.039Z,1024.04
2024-05-09T11:09:34.062Z,1023.96
2024-05-09T11:10:34.716Z,1023.99
2024-05-09T11:11:34.145Z,1023.99
2024-05-09T11:12:34.007Z,1024.01
2024-05-09T11:13:33.979Z,1023.94
2024-05-09T11:14:34.002Z,1023.98
2024-05-09T11:15:34.662Z,1024.06
2024-05-09T11:16:33.912Z,1023.94
2024-05-09T11:17:34.076Z,1023.96
2024-05-09T11:18:37.789Z,1023.90
2024-05-09T11:19:34.945Z,1023.87
2024-05-09T11:20:35.476Z,1023.86
2024-05-09T11:21:33.950Z,1023.84
2024-05-09T11:22:33.830Z,1023.83
2024-05-09T11:23:35.022Z,1023.88
2024-05-09T11:24:33.830Z,1023.87
2024-05-09T11:25:33.799Z,1023.87
2024-05-09T11:26:33.870Z,1023.87
2024-05-09T11:27:33.777Z,1023.81
2024-05-09T11:28:33.760Z,1023.83
2024-05-09T11:29:33.711Z,1023.90
2024-05-09T11:30:33.975Z,1023.82
2024-05-09T11:31:33.809Z,1023.87
2024-05-09T11:32:33.868Z,1023.80
2024-05-09T11:33:34.378Z,1023.82
2024-05-09T11:34:33.712Z,1023.84
2024-05-09T11:35:33.691Z,1023.83
2024-05-09T11:36:33.754Z,1023.80
2024-05-09T11:37:36.802Z,1023.76
2024-05-09T11:38:33.646Z,1023.78
2024-05-09T11:39:33.819Z,1023.75
2024-05-09T11:40:34.658Z,1023.75
2024-05-09T11:41:33.540Z,1023.86
2024-05-09T11:42:33.673Z,1023.74
2024-05-09T11:43:33.719Z,1023.75
2024-05-09T11:44:33.587Z,1023.75
2024-05-09T11:45:33.592Z,1023.73
2024-05-09T11:46:33.563Z,1023.75
2024-05-09T11:47:33.630Z,1023.66
2024-05-09T11:48:33.793Z,1023.70
2024-05-09T11:49:33.719Z,1023.58
2024-05-09T11:50:35.894Z,1023.60
2024-05-09T11:51:33.514Z,1023.63
2024-05-09T11:52:33.407Z,1023.65
2024-05-09T11:53:33.414Z,1023.68
2024-05-09T11:54:33.469Z,1023.61
2024-05-09T11:55:33.531Z,1023.62
2024-05-09T11:56:33.376Z,1023.60
2024-05-09T11:57:33.448Z,1023.58
2024-05-09T11:58:33.475Z,1023.50
2024-05-09T11:59:33.368Z,1023.50
2024-05-09T12:00:37.155Z,1023.53
2024-05-09T12:01:33.444Z,1023.58
2024-05-09T12:02:33.416Z,1023.57
2024-05-09T12:03:33.371Z,1023.53
2024-05-09T12:04:33.446Z,1023.51
2024-05-09T12:05:34.343Z,1023.50
2024-05-09T12:06:33.401Z,1023.48
2024-05-09T12:07:33.216Z,1023.45
2024-05-09T12:08:33.314Z,1023.55
2024-05-09T12:09:33.357Z,1023.49
2024-05-09T12:10:35.625Z,1023.45
2024-05-09T12:11:33.366Z,1023.44
2024-05-09T12:12:35.369Z,1023.49
2024-05-09T12:13:33.231Z,1023.54
2024-05-09T12:14:33.175Z,1023.52
2024-05-09T12:15:33.226Z,1023.56
2024-05-09T12:16:33.354Z,1023.57
2024-05-09T12:17:33.240Z,1023.57
2024-05-09T12:18:33.467Z,1023.58
2024-05-09T12:19:33.185Z,1023.56
2024-05-09T12:20:37.369Z,1023.56
2024-05-09T12:21:34.086Z,1023.55
2024-05-09T12:22:33.020Z,1023.51
2024-05-09T12:23:33.080Z,1023.43
2024-05-09T12:24:33.127Z,1023.44
2024-05-09T12:25:33.034Z,1023.44
2024-05-09T12:26:32.971Z,1023.49
2024-05-09T12:27:33.023Z,1023.44
2024-05-09T12:28:33.048Z,1023.43
2024-05-09T12:29:34.953Z,1023.40
2024-05-09T12:30:37.992Z,1023.43
2024-05-09T12:31:34.011Z,1023.47
2024-05-09T12:32:32.979Z,1023.46
2024-05-09T12:33:33.037Z,1023.46
2024-05-09T12:34:32.922Z,1023.47
2024-05-09T12:35:33.122Z,1023.37
2024-05-09T12:36:32.960Z,1023.37
2024-05-09T12:37:32.829Z,1023.34
2024-05-09T12:38:32.855Z,1023.37
2024-05-09T12:39:32.876Z,1023.27
2024-05-09T12:40:37.395Z,1023.28
2024-05-09T12:41:32.815Z,1023.20
2024-05-09T12:43:32.930Z,1023.21
2024-05-09T12:44:32.734Z,1023.22
2024-05-09T12:45:32.897Z,1023.22
2024-05-09T12:46:32.767Z,1023.21
2024-05-09T12:47:32.843Z,1023.23
2024-05-09T12:48:32.901Z,1023.23
2024-05-09T12:49:32.961Z,1023.18
2024-05-09T12:50:34.393Z,1023.15
2024-05-09T12:51:32.764Z,1023.08
2024-05-09T12:52:32.672Z,1023.14
2024-05-09T12:53:32.660Z,1023.07
2024-05-09T12:54:32.674Z,1023.03
2024-05-09T12:55:40.625Z,1023.09
2024-05-09T12:56:33.660Z,1023.04
2024-05-09T12:57:32.750Z,1022.95
2024-05-09T12:58:32.574Z,1023.06
2024-05-09T12:59:32.578Z,1023.02
2024-05-09T13:00:34.288Z,1022.98
2024-05-09T13:01:32.655Z,1022.97
2024-05-09T13:02:32.676Z,1022.96
2024-05-09T13:03:32.674Z,1022.91
2024-05-09T13:04:32.609Z,1022.90
2024-05-09T13:05:32.651Z,1022.91
2024-05-09T13:06:32.621Z,1022.93
2024-05-09T13:07:32.467Z,1023.01
2024-05-09T13:08:32.499Z,1023.01
2024-05-09T13:09:32.529Z,1022.95
2024-05-09T13:10:33.496Z,1022.94
2024-05-09T13:11:32.455Z,1022.93
2024-05-09T13:12:32.546Z,1022.90
2024-05-09T13:13:32.373Z,1022.83
2024-05-09T13:14:32.436Z,1022.86
2024-05-09T13:15:32.765Z,1022.89
2024-05-09T13:16:32.451Z,1022.85
2024-05-09T13:17:32.382Z,1022.89
2024-05-09T13:18:32.538Z,1022.85
2024-05-09T13:19:32.396Z,1022.85
2024-05-09T13:20:34.570Z,1022.89
2024-05-09T13:21:32.326Z,1022.88
2024-05-09T13:22:32.282Z,1022.86
2024-05-09T13:23:32.242Z,1022.87
2024-05-09T13:24:32.278Z,1022.82
2024-05-09T13:25:32.198Z,1022.82
2024-05-09T13:26:32.236Z,1022.84
2024-05-09T13:27:32.274Z,1022.85
2024-05-09T13:28:32.353Z,1022.83
2024-05-09T13:29:32.172Z,1022.80
2024-05-09T13:30:39.333Z,1022.80
2024-05-09T13:31:33.174Z,1022.83
2024-05-09T13:32:32.221Z,1022.86
2024-05-09T13:33:32.254Z,1022.73
2024-05-09T13:34:32.138Z,1022.84
2024-05-09T13:35:32.139Z,1022.82
2024-05-09T13:36:32.182Z,1022.76
2024-05-09T13:37:32.055Z,1022.81
2024-05-09T13:38:32.062Z,1022.76
2024-05-09T13:39:32.097Z,1022.73
2024-05-09T13:40:34.922Z,1022.74
2024-05-09T13:41:32.014Z,1022.74
2024-05-09T13:42:32.022Z,1022.73
2024-05-09T13:43:32.035Z,1022.78
2024-05-09T13:44:32.045Z,1022.71
2024-05-09T13:45:32.152Z,1022.71
2024-05-09T13:46:32.023Z,1022.72
2024-05-09T13:47:32.298Z,1022.73
2024-05-09T13:48:32.752Z,1022.75
2024-05-09T13:49:32.808Z,1022.71
2024-05-09T13:50:35.686Z,1022.74
2024-05-09T13:51:32.925Z,1022.74
2024-05-09T13:52:31.891Z,1022.78
2024-05-09T13:53:31.971Z,1022.75
2024-05-09T13:54:31.873Z,1022.76
2024-05-09T13:55:31.809Z,1022.72
2024-05-09T13:56:31.855Z,1022.73
2024-05-09T13:57:31.841Z,1022.67
2024-05-09T13:58:32.203Z,1022.71
2024-05-09T13:59:31.838Z,1022.69
2024-05-09T14:00:43.659Z,1022.59
2024-05-09T14:01:32.854Z,1022.66
2024-05-09T14:02:31.850Z,1022.64
2024-05-09T14:03:31.921Z,1022.64
2024-05-09T14:04:31.836Z,1022.61
2024-05-09T14:05:31.827Z,1022.61
2024-05-09T14:06:31.760Z,1022.59
2024-05-09T14:07:31.680Z,1022.58
2024-05-09T14:08:31.633Z,1022.51
2024-05-09T14:09:31.671Z,1022.54
2024-05-09T14:10:32.512Z,1022.50
2024-05-09T14:11:31.734Z,1022.49
2024-05-09T14:12:31.626Z,1022.43
2024-05-09T14:13:31.590Z,1022.44
2024-05-09T14:14:31.569Z,1022.41
2024-05-09T14:15:31.614Z,1022.49
2024-05-09T14:16:31.708Z,1022.44
2024-05-09T14:17:31.707Z,1022.43
2024-05-09T14:18:31.672Z,1022.37
2024-05-09T14:19:31.505Z,1022.35
2024-05-09T14:20:32.525Z,1022.37
2024-05-09T14:21:31.663Z,1022.39
2024-05-09T14:22:31.480Z,1022.40
2024-05-09T14:23:31.479Z,1022.40
2024-05-09T14:24:31.537Z,1022.39
2024-05-09T14:25:31.448Z,1022.39
2024-05-09T14:26:31.496Z,1022.37
2024-05-09T14:27:31.454Z,1022.37
2024-05-09T14:28:31.435Z,1022.39
2024-05-09T14:29:31.379Z,1022.40
2024-05-09T14:30:36.966Z,1022.35
2024-05-09T14:31:33.345Z,1022.37
2024-05-09T14:32:31.468Z,1022.32
2024-05-09T14:33:31.542Z,1022.27
2024-05-09T14:34:31.412Z,1022.33
2024-05-09T14:35:31.310Z,1022.29
2024-05-09T14:36:31.326Z,1022.34
2024-05-09T14:37:31.281Z,1022.33
2024-05-09T14:38:31.273Z,1022.32
2024-05-09T14:39:31.305Z,1022.35
2024-05-09T14:40:39.850Z,1022.33
2024-05-09T14:41:32.237Z,1022.31
2024-05-09T14:42:31.241Z,1022.31
2024-05-09T14:43:31.358Z,1022.32
2024-05-09T14:44:31.157Z,1022.37
2024-05-09T14:45:31.307Z,1022.26
2024-05-09T14:46:31.166Z,1022.28
2024-05-09T14:47:31.203Z,1022.27
2024-05-09T14:48:31.299Z,1022.21
2024-05-09T14:49:31.277Z,1022.25
2024-05-09T14:50:36.653Z,1022.26
2024-05-09T14:51:32.136Z,1022.24
2024-05-09T14:52:31.117Z,1022.21
2024-05-09T14:53:31.070Z,1022.18
2024-05-09T14:54:31.063Z,1022.20
2024-05-09T14:55:31.151Z,1022.17
2024-05-09T14:56:31.041Z,1022.19
2024-05-09T14:57:31.120Z,1022.17
2024-05-09T14:58:31.108Z,1022.14
2024-05-09T14:59:30.974Z,1022.25
2024-05-09T15:00:35.869Z,1022.18
2024-05-09T15:01:32.641Z,1022.17
2024-05-09T15:02:30.976Z,1022.13
2024-05-09T15:03:31.025Z,1022.15
2024-05-09T15:04:31.025Z,1022.14
2024-05-09T15:05:30.926Z,1022.13
2024-05-09T15:06:30.989Z,1022.10
2024-05-09T15:07:30.919Z,1022.13
2024-05-09T15:08:31.330Z,1022.06
2024-05-09T15:09:30.881Z,1022.08
2024-05-09T15:10:35.044Z,1022.08
2024-05-09T15:11:31.876Z,1022.10
2024-05-09T15:12:30.824Z,1022.01
2024-05-09T15:13:30.939Z,1021.99
2024-05-09T15:14:30.748Z,1022.04
2024-05-09T15:15:31.002Z,1021.95
2024-05-09T15:16:30.755Z,1021.99
2024-05-09T15:17:30.848Z,1022.00
2024-05-09T15:18:31.019Z,1021.98
2024-05-09T15:19:30.836Z,1021.99
2024-05-09T15:20:35.236Z,1021.95
2024-05-09T15:21:31.692Z,1021.95
2024-05-09T15:22:30.714Z,1021.95
2024-05-09T15:23:30.640Z,1021.98
2024-05-09T15:24:30.734Z,1021.91
2024-05-09T15:25:30.790Z,1021.91
2024-05-09T15:26:30.696Z,1021.88
2024-05-09T15:27:30.726Z,1021.86
2024-05-09T15:28:30.624Z,1021.92
2024-05-09T15:29:30.555Z,1021.90
2024-05-09T15:30:33.147Z,1021.90
2024-05-09T15:31:30.543Z,1021.91
2024-05-09T15:32:30.703Z,1021.91
2024-05-09T15:33:30.659Z,1021.88
2024-05-09T15:34:30.555Z,1021.89